Time;durP1;ratioP1;P1;durP2;ratioP2;P2;SDS_P1;SDS_P2;PMS_P1;PMS_P2;Temp;Humidity;BMP_temperature;BMP_pressure;BME280_temperature;BME280_humidity;BME280_pressure;Samples;Min_cycle;Max_cycle;Signal;HPM_P1;HPM_P2
2022/06/08 00:00:34;;;;;;;5.32;3.92;;;;;;;14.56;100.00;94603.38;5059187;28;20098;-67
2022/06/08 00:03:06;;;;;;;4.38;3.42;;;;;;;14.49;100.00;94592.38;5060971;28;20076;-67
2022/06/08 00:05:33;;;;;;;4.65;3.67;;;;;;;14.32;100.00;94575.06;5061011;28;20071;-67
2022/06/08 00:08:01;;;;;;;5.03;3.53;;;;;;;14.39;100.00;94592.38;5059855;28;20432;-67
2022/06/08 00:10:28;;;;;;;7.22;3.75;;;;;;;14.41;100.00;94590.28;5059914;28;20048;-67
2022/06/08 00:12:54;;;;;;;4.50;3.95;;;;;;;14.40;100.00;94584.22;5060782;28;20052;-67
2022/06/08 00:15:21;;;;;;;6.22;4.30;;;;;;;14.40;100.00;94588.69;5075786;28;20036;-67
2022/06/08 00:17:48;;;;;;;4.63;3.58;;;;;;;14.28;100.00;94591.56;5057499;28;20029;-67
2022/06/08 00:20:15;;;;;;;5.90;3.40;;;;;;;14.27;100.00;94596.00;5059358;28;20106;-67
2022/06/08 00:22:42;;;;;;;4.57;4.10;;;;;;;14.15;100.00;94579.72;5062002;28;20149;-67
2022/06/08 00:25:11;;;;;;;4.85;3.95;;;;;;;14.22;100.00;94598.59;5057691;28;20731;-67
2022/06/08 00:27:37;;;;;;;6.25;4.82;;;;;;;14.07;100.00;94606.44;5059552;28;20040;-67
2022/06/08 00:30:06;;;;;;;9.40;4.00;;;;;;;13.57;100.00;94598.91;5062120;28;20048;-67
2022/06/08 00:32:35;;;;;;;7.22;5.00;;;;;;;13.53;100.00;94592.63;5058039;28;20111;-67
2022/06/08 00:35:03;;;;;;;7.38;5.05;;;;;;;13.50;100.00;94598.34;5060262;28;20505;-67
2022/06/08 00:37:30;;;;;;;6.10;4.82;;;;;;;13.29;100.00;94596.66;5062494;28;20043;-67
2022/06/08 00:39:58;;;;;;;7.47;5.13;;;;;;;13.24;100.00;94594.03;5065846;28;20053;-67
2022/06/08 00:42:26;;;;;;;7.93;4.90;;;;;;;13.12;100.00;94592.38;5062331;28;20040;-67
2022/06/08 00:44:58;;;;;;;5.85;4.20;;;;;;;13.18;100.00;94586.16;5066137;28;20448;-67
2022/06/08 00:47:39;;;;;;;6.20;5.10;;;;;;;13.20;100.00;94589.28;5083029;28;20047;-67
2022/06/08 00:50:13;;;;;;;6.10;4.35;;;;;;;13.20;100.00;94589.28;5067585;28;20036;-66
2022/06/08 00:52:40;;;;;;;7.75;4.38;;;;;;;13.12;100.00;94584.53;5082451;28;20041;-66
2022/06/08 00:55:10;;;;;;;8.75;4.25;;;;;;;13.09;100.00;94582.44;5102389;27;20389;-67
2022/06/08 00:57:41;;;;;;;5.50;4.30;;;;;;;12.98;100.00;94575.53;5070252;28;20048;-66
2022/06/08 01:00:09;;;;;;;11.10;5.45;;;;;;;12.95;100.00;94581.28;5070359;28;20083;-67
2022/06/08 01:02:36;;;;;;;5.47;4.82;;;;;;;12.86;100.00;94578.34;5069156;28;20040;-66
2022/06/08 01:05:28;;;;;;;6.93;5.20;;;;;;;12.82;100.00;94583.28;5069650;28;20044;-66
2022/06/08 01:08:03;;;;;;;6.07;5.45;;;;;;;12.80;100.00;94580.16;5058124;28;20044;-67
2022/06/08 01:10:43;;;;;;;8.43;4.93;;;;;;;12.70;100.00;94587.91;5058251;28;20048;-66
2022/06/08 01:13:11;;;;;;;14.55;5.22;;;;;;;12.66;100.00;94583.41;5059367;28;20179;-67
2022/06/08 01:15:41;;;;;;;6.10;4.68;;;;;;;12.58;100.00;94579.44;5058475;28;20049;-66
2022/06/08 01:18:12;;;;;;;5.63;3.97;;;;;;;12.52;100.00;94577.84;5059429;28;20033;-66
2022/06/08 01:20:48;;;;;;;5.57;4.70;;;;;;;12.47;100.00;94575.19;5057994;28;20541;-66
2022/06/08 01:23:18;;;;;;;7.63;5.50;;;;;;;12.55;100.00;94572.91;5059022;28;20090;-66
2022/06/08 01:26:32;;;;;;;8.93;6.45;;;;;;;12.56;100.00;94565.84;5039289;28;20044;-66
2022/06/08 01:29:16;;;;;;;6.25;5.13;;;;;;;12.50;100.00;94564.25;5051451;28;20068;-66
2022/06/08 01:32:11;;;;;;;10.32;5.00;;;;;;;12.40;100.00;94564.94;5055679;28;20048;-66
2022/06/08 01:34:56;;;;;;;7.72;5.55;;;;;;;12.28;100.00;94557.25;5058811;28;20040;-66
2022/06/08 01:37:55;;;;;;;10.27;5.57;;;;;;;12.24;100.00;94564.00;5058206;28;20132;-66
2022/06/08 01:40:34;;;;;;;7.07;5.70;;;;;;;12.32;100.00;94562.78;5060296;28;20048;-66
2022/06/08 01:43:20;;;;;;;7.00;5.07;;;;;;;12.33;100.00;94554.66;5057979;28;20040;-67
2022/06/08 01:45:56;;;;;;;7.38;4.72;;;;;;;12.35;100.00;94555.25;5079303;28;20052;-67
2022/06/08 01:48:45;;;;;;;9.02;5.20;;;;;;;12.35;100.00;94557.84;5061213;28;20043;-66
2022/06/08 01:51:33;;;;;;;5.90;5.10;;;;;;;12.32;100.00;94553.13;5057530;28;20044;-66
2022/06/08 01:54:20;;;;;;;6.22;5.18;;;;;;;12.33;100.00;94559.13;5059995;28;20440;-66
2022/06/08 01:56:55;;;;;;;6.68;5.22;;;;;;;12.34;100.00;94551.03;5058717;28;20075;-67
2022/06/08 01:59:49;;;;;;;7.45;5.30;;;;;;;12.33;100.00;94559.91;5076714;28;20041;-67
2022/06/08 02:02:36;;;;;;;9.95;4.70;;;;;;;12.34;100.00;94561.47;5057076;28;20568;-67
2022/06/08 02:05:27;;;;;;;5.78;5.20;;;;;;;12.34;100.00;94561.47;5060814;28;20935;-67
2022/06/08 02:08:10;;;;;;;4.93;4.43;;;;;;;12.39;100.00;94560.75;5056728;28;20263;-66
2022/06/08 02:10:46;;;;;;;7.35;5.13;;;;;;;12.46;100.00;94553.50;5058663;28;20114;-66
2022/06/08 02:13:43;;;;;;;8.00;4.90;;;;;;;12.48;100.00;94561.06;5091477;27;20044;-67
2022/06/08 02:16:35;;;;;;;6.47;4.90;;;;;;;12.47;100.00;94559.50;5032652;28;20777;-67
2022/06/08 02:19:13;;;;;;;12.25;5.80;;;;;;;12.42;100.00;94553.22;5059373;28;20050;-67
2022/06/08 02:21:49;;;;;;;7.53;5.75;;;;;;;12.38;100.00;94559.94;5057408;28;20048;-66
2022/06/08 02:24:25;;;;;;;7.78;5.65;;;;;;;12.31;100.00;94561.19;5059715;28;20496;-66
2022/06/08 02:27:01;;;;;;;10.60;4.93;;;;;;;12.23;100.00;94558.00;5094028;27;20052;-67
2022/06/08 02:29:36;;;;;;;13.60;5.03;;;;;;;12.21;100.00;94562.69;5053143;28;20044;-67
2022/06/08 02:34:28;;;;;;;8.60;5.20;;;;;;;12.16;100.00;94564.47;5059657;28;21509;-68
2022/06/08 02:35:01;;;;;;;6.57;5.43;;;;;;;12.13;100.00;94564.94;5056221;28;20763;-67
2022/06/08 02:37:32;;;;;;;11.85;7.05;;;;;;;12.12;100.00;94556.34;5066027;28;20044;-67
2022/06/08 02:40:09;;;;;;;9.05;5.90;;;;;;;12.10;100.00;94555.00;5073153;28;20052;-66
2022/06/08 02:42:45;;;;;;;10.88;6.18;;;;;;;12.02;100.00;94549.16;5056703;28;20131;-66
2022/06/08 02:45:19;;;;;;;8.93;5.88;;;;;;;12.01;100.00;94552.84;5057197;28;20056;-66
2022/06/08 02:47:50;;;;;;;9.68;5.70;;;;;;;11.97;100.00;94546.50;5044759;28;20036;-67
2022/06/08 02:50:21;;;;;;;6.53;5.22;;;;;;;11.93;100.00;94545.44;5056932;28;20805;-67
2022/06/08 02:52:50;;;;;;;7.80;6.13;;;;;;;11.93;100.00;94544.66;5059256;28;20154;-66
2022/06/08 02:55:33;;;;;;;8.27;6.20;;;;;;;11.92;100.00;94543.88;5058842;28;20110;-66
2022/06/08 02:58:19;;;;;;;7.90;6.57;;;;;;;12.01;100.00;94550.22;5073044;28;20052;-66
2022/06/08 03:00:55;;;;;;;8.85;6.22;;;;;;;12.05;100.00;94559.13;5053822;28;20121;-66
2022/06/08 03:03:33;;;;;;;6.57;5.53;;;;;;;12.08;100.00;94560.44;5057334;28;20044;-67
2022/06/08 03:06:15;;;;;;;8.05;6.07;;;;;;;12.02;100.00;94564.84;5054316;28;20052;-67
2022/06/08 03:08:51;;;;;;;10.52;6.97;;;;;;;12.05;100.00;94569.56;5056778;28;20040;-67
2022/06/08 03:11:19;;;;;;;10.13;6.85;;;;;;;12.03;100.00;94571.66;5051836;28;20127;-66
2022/06/08 03:13:55;;;;;;;7.82;6.43;;;;;;;11.99;100.00;94573.19;5087994;27;20047;-67
2022/06/08 03:16:34;;;;;;;9.13;5.63;;;;;;;12.03;100.00;94566.44;5059273;28;20171;-68
2022/06/08 03:19:07;;;;;;;11.00;6.03;;;;;;;12.11;100.00;94567.03;5058450;28;20041;-69
2022/06/08 03:21:36;;;;;;;9.25;5.07;;;;;;;12.12;100.00;94566.78;5060014;28;20044;-67
2022/06/08 03:24:04;;;;;;;8.73;5.60;;;;;;;12.22;100.00;94573.91;5042023;28;20058;-67
2022/06/08 03:26:41;;;;;;;12.80;5.50;;;;;;;12.28;100.00;94572.13;5043910;28;20214;-68
2022/06/08 03:29:09;;;;;;;7.30;5.85;;;;;;;12.26;100.00;94580.19;5073472;28;20046;-68
2022/06/08 03:31:36;;;;;;;7.78;5.80;;;;;;;12.26;100.00;94580.19;5061485;28;20045;-67
2022/06/08 03:34:04;;;;;;;7.53;5.43;;;;;;;12.26;100.00;94574.97;5055370;28;20133;-67
2022/06/08 03:36:32;;;;;;;8.50;5.50;;;;;;;12.33;100.00;94574.78;5094470;27;20044;-67
2022/06/08 03:39:00;;;;;;;7.55;5.50;;;;;;;12.40;100.00;94581.38;5057848;28;20166;-67
2022/06/08 03:41:31;;;;;;;15.18;5.40;;;;;;;12.50;100.00;94591.13;5061615;28;20037;-67
2022/06/08 03:44:00;;;;;;;8.02;5.65;;;;;;;12.54;100.00;94586.22;5058470;28;20040;-67
2022/06/08 03:46:28;;;;;;;12.73;5.85;;;;;;;12.58;100.00;94575.00;5061270;28;20046;-67
2022/06/08 03:48:57;;;;;;;7.78;5.70;;;;;;;12.51;100.00;94568.41;5057783;28;20040;-66
2022/06/08 03:51:35;;;;;;;7.28;5.38;;;;;;;12.64;100.00;94581.06;5064973;28;20044;-67
2022/06/08 03:54:09;;;;;;;7.10;4.95;;;;;;;12.66;100.00;94584.22;5058365;28;20091;-68
2022/06/08 03:56:40;;;;;;;10.97;5.37;;;;;;;12.69;100.00;94588.94;5060513;28;20082;-76
2022/06/08 03:59:07;;;;;;;10.13;5.55;;;;;;;12.74;100.00;94585.56;5064470;28;20127;-76
2022/06/08 04:01:37;;;;;;;10.38;5.97;;;;;;;12.63;100.00;94574.25;5094686;27;20064;-75
2022/06/08 04:04:04;;;;;;;19.02;6.10;;;;;;;12.77;100.00;94569.41;5047453;28;20094;-79
2022/06/08 04:06:32;;;;;;;14.90;6.85;;;;;;;12.87;100.00;94589.59;5094966;27;20036;-79
2022/06/08 04:09:00;;;;;;;8.82;5.82;;;;;;;12.88;100.00;94570.28;5094143;27;20045;-77
2022/06/08 04:11:32;;;;;;;10.40;6.45;;;;;;;12.95;100.00;94576.84;5058117;28;20098;-79
2022/06/08 04:14:00;;;;;;;10.20;5.78;;;;;;;13.10;100.00;94589.22;5065079;28;20059;-79
2022/06/08 04:16:28;;;;;;;17.35;7.13;;;;;;;13.25;100.00;94596.34;5063456;28;20049;-79
2022/06/08 04:19:03;;;;;;;10.23;6.35;;;;;;;13.33;100.00;94592.53;5066515;28;20610;-79
2022/06/08 04:21:34;;;;;;;;;;;;;;;13.49;100.00;94583.72;5065421;28;20151;-79
2022/06/08 04:24:05;;;;;;;11.68;6.05;;;;;;;13.58;100.00;94597.88;5069692;28;19924;-79
2022/06/08 04:26:33;;;;;;;12.02;6.97;;;;;;;13.74;100.00;94597.97;5069238;28;20265;-79
2022/06/08 04:29:08;;;;;;;9.18;6.65;;;;;;;13.91;100.00;94600.38;5078001;28;20123;-80
2022/06/08 04:31:38;;;;;;;10.52;7.50;;;;;;;14.06;100.00;94589.13;5061186;28;20055;-79
2022/06/08 04:34:15;;;;;;;9.40;6.78;;;;;;;14.13;100.00;94568.72;5062922;28;20052;-79
2022/06/08 04:36:46;;;;;;;9.13;7.20;;;;;;;14.31;100.00;94581.34;5072036;28;20048;-78
2022/06/08 04:39:19;;;;;;;9.82;7.63;;;;;;;14.46;100.00;94577.97;5076681;28;20049;-79
2022/06/08 04:41:51;;;;;;;12.48;7.57;;;;;;;14.44;100.00;94558.28;5075093;28;20328;-80
2022/06/08 04:44:21;;;;;;;10.57;7.38;;;;;;;14.58;100.00;94559.38;5078530;28;20070;-80
2022/06/08 04:46:50;;;;;;;11.23;6.80;;;;;;;14.57;100.00;94547.31;5075582;28;20052;-80
2022/06/08 04:49:21;;;;;;;8.65;6.68;;;;;;;14.76;100.00;94560.69;5052302;28;20064;-80
2022/06/08 04:51:51;;;;;;;11.20;6.30;;;;;;;14.67;100.00;94525.56;5066680;28;20040;-80
2022/06/08 04:54:20;;;;;;;8.50;6.30;;;;;;;14.98;100.00;94563.03;5064008;28;20467;-80
2022/06/08 04:56:47;;;;;;;10.95;6.07;;;;;;;14.93;100.00;94539.44;5066311;28;20097;-80
2022/06/08 04:59:14;;;;;;;7.75;6.20;;;;;;;15.08;100.00;94542.03;5064574;28;20036;-77
2022/06/08 05:01:46;;;;;;;9.30;5.75;;;;;;;15.39;100.00;94560.31;5057682;28;20048;-78
2022/06/08 05:04:14;;;;;;;8.07;6.65;;;;;;;15.55;100.00;94570.75;5064064;28;20036;-79
2022/06/08 05:06:45;;;;;;;10.20;6.07;;;;;;;15.69;100.00;94569.13;5048322;28;20040;-80
2022/06/08 05:09:12;;;;;;;12.30;6.35;;;;;;;15.78;100.00;94554.41;5045003;28;20777;-79
2022/06/08 05:11:43;;;;;;;8.00;5.72;;;;;;;15.96;100.00;94554.88;5079356;28;20071;-79
2022/06/08 05:14:11;;;;;;;9.05;6.53;;;;;;;16.21;100.00;94578.34;5061867;28;20106;-79
2022/06/08 05:16:38;;;;;;;7.40;5.40;;;;;;;16.37;100.00;94575.66;5064936;28;20060;-79
2022/06/08 05:19:05;;;;;;;6.22;5.00;;;;;;;16.39;100.00;94557.75;5065497;28;20916;-79
2022/06/08 05:21:32;;;;;;;11.50;6.18;;;;;;;16.54;100.00;94565.50;5064368;28;20041;-79
2022/06/08 05:24:08;;;;;;;8.15;6.38;;;;;;;16.53;100.00;94556.06;5051118;28;20055;-79
2022/06/08 05:26:42;;;;;;;7.05;5.38;;;;;;;16.30;100.00;94556.78;5065692;28;20037;-79
2022/06/08 05:29:11;;;;;;;9.85;6.18;;;;;;;16.54;100.00;94570.78;5063132;28;20033;-79
2022/06/08 05:31:37;;;;;;;11.82;7.25;;;;;;;16.40;100.00;94575.06;5060945;28;20615;-79
2022/06/08 05:34:06;;;;;;;12.35;7.65;;;;;;;16.38;100.00;94569.31;5069536;28;20048;-79
2022/06/08 05:36:34;;;;;;;9.75;7.18;;;;;;;16.36;100.00;94569.59;5066239;28;20040;-79
2022/06/08 05:39:06;;;;;;;13.40;6.97;;;;;;;16.36;100.00;94563.56;5074030;28;20044;-79
2022/06/08 05:41:39;;;;;;;8.48;6.57;;;;;;;16.40;100.00;94564.56;5066193;28;20042;-79
2022/06/08 05:44:08;;;;;;;8.68;6.35;;;;;;;16.58;100.00;94571.81;5073953;28;20056;-79
2022/06/08 05:46:35;;;;;;;7.78;5.95;;;;;;;16.52;100.00;94557.13;5068983;28;20109;-79
2022/06/08 05:49:11;;;;;;;8.20;6.20;;;;;;;16.61;100.00;94550.22;5070510;28;20044;-79
2022/06/08 05:51:41;;;;;;;7.07;5.78;;;;;;;17.02;100.00;94582.53;5070859;28;20064;-79
2022/06/08 05:54:12;;;;;;;10.88;5.72;;;;;;;17.24;100.00;94588.09;5077252;28;20436;-81
2022/06/08 05:56:40;;;;;;;10.38;6.70;;;;;;;17.42;100.00;94576.06;5070059;28;20127;-80
2022/06/08 05:59:09;;;;;;;8.05;6.47;;;;;;;17.60;100.00;94569.28;5076212;28;20458;-80
2022/06/08 06:01:39;;;;;;;8.55;5.60;;;;;;;17.59;98.72;94572.97;5080327;28;20058;-80
2022/06/08 06:04:07;;;;;;;7.07;5.78;;;;;;;17.61;97.67;94565.59;5078798;28;20048;-80
2022/06/08 06:06:36;;;;;;;7.63;5.90;;;;;;;17.85;98.12;94570.06;5074062;28;20398;-80
2022/06/08 06:09:04;;;;;;;6.68;5.75;;;;;;;18.07;98.48;94578.22;5071739;28;20032;-80
2022/06/08 06:11:34;;;;;;;7.13;5.20;;;;;;;18.18;96.32;94581.50;5058741;28;20524;-80
2022/06/08 06:14:02;;;;;;;6.50;5.28;;;;;;;18.12;96.36;94575.53;5060902;28;20056;-77
2022/06/08 06:16:35;;;;;;;6.57;5.47;;;;;;;18.21;95.60;94588.06;5077120;28;20051;-79
2022/06/08 06:19:03;;;;;;;7.35;5.43;;;;;;;18.24;95.08;94580.38;5077462;28;20220;-79
2022/06/08 06:21:49;;;;;;;6.72;5.28;;;;;;;18.30;94.07;94586.38;5066393;28;20054;-79
2022/06/08 06:24:41;;;;;;;7.15;4.70;;;;;;;18.23;93.60;94580.66;5060720;28;20044;-80
2022/06/08 06:27:21;;;;;;;5.55;4.22;;;;;;;18.39;92.85;94579.38;5052801;28;21471;-79
2022/06/08 06:30:15;;;;;;;5.47;4.43;;;;;;;18.60;91.18;94573.78;5052606;28;20453;-67
2022/06/08 06:32:54;;;;;;;5.88;5.03;;;;;;;18.67;91.91;94568.94;5056606;28;20040;-67
2022/06/08 06:35:25;;;;;;;7.10;4.40;;;;;;;18.87;90.91;94573.94;5059284;28;20063;-64
2022/06/08 06:37:56;;;;;;;7.47;3.80;;;;;;;18.90;88.90;94562.78;5072687;28;20055;-68
2022/06/08 06:40:25;;;;;;;6.97;4.35;;;;;;;19.10;89.14;94566.13;5056990;28;20675;-69
2022/06/08 06:42:52;;;;;;;8.02;5.38;;;;;;;19.26;89.89;94559.50;5047345;28;20437;-68
2022/06/08 06:45:37;;;;;;;7.10;4.00;;;;;;;19.41;88.66;94565.59;5055935;28;21125;-69
2022/06/08 06:48:22;;;;;;;7.03;4.63;;;;;;;19.62;88.92;94560.72;5063243;28;20087;-68
2022/06/08 06:50:49;;;;;;;5.95;4.78;;;;;;;19.74;87.68;94568.19;5063273;28;20415;-69
2022/06/08 06:53:16;;;;;;;4.70;3.97;;;;;;;19.91;88.64;94563.06;5076894;28;20083;-69
2022/06/08 06:55:49;;;;;;;9.43;3.85;;;;;;;20.23;85.46;94563.97;5043129;28;20412;-71
2022/06/08 06:58:22;;;;;;;7.05;3.88;;;;;;;20.38;85.02;94566.28;5060482;28;20052;-71
2022/06/08 07:00:53;;;;;;;6.63;4.25;;;;;;;20.50;83.89;94557.03;5059317;28;20032;-70
2022/06/08 07:03:22;;;;;;;8.80;3.40;;;;;;;20.58;83.34;94556.31;5060198;28;20667;-70
2022/06/08 07:05:50;;;;;;;4.38;3.55;;;;;;;20.63;82.71;94550.94;5056939;28;20048;-70
2022/06/08 07:08:18;;;;;;;4.82;3.28;;;;;;;20.80;82.11;94534.41;5055933;28;20044;-68
2022/06/08 07:11:32;;;;;;;4.97;3.30;;;;;;;21.10;78.90;94543.41;5056712;28;20122;-67
2022/06/08 07:13:36;;;;;;;3.53;3.22;;;;;;;21.27;77.79;94547.25;5055614;28;20041;-67
2022/06/08 07:16:05;;;;;;;5.28;3.45;;;;;;;21.50;76.75;94546.13;5071747;28;20155;-68
2022/06/08 07:18:31;;;;;;;3.33;2.63;;;;;;;21.60;72.36;94545.06;5054140;28;20041;-67
2022/06/08 07:20:59;;;;;;;4.88;2.92;;;;;;;21.66;69.49;94548.34;5081648;28;20557;-67
2022/06/08 07:23:25;;;;;;;4.15;2.80;;;;;;;21.54;69.35;94547.06;5056183;28;20055;-66
2022/06/08 07:25:52;;;;;;;8.05;2.78;;;;;;;21.78;70.56;94548.53;5054984;28;20052;-68
2022/06/08 07:28:19;;;;;;;5.07;2.30;;;;;;;22.12;67.88;94544.38;5056785;28;20040;-67
2022/06/08 07:30:47;;;;;;;3.90;2.65;;;;;;;22.22;64.16;94544.09;5063080;28;20041;-68
2022/06/08 07:33:14;;;;;;;4.05;2.15;;;;;;;22.33;63.64;94548.00;5056865;28;20701;-67
2022/06/08 07:35:41;;;;;;;8.68;2.67;;;;;;;22.53;61.21;94553.78;5063144;28;20095;-67
2022/06/08 07:38:08;;;;;;;2.38;2.10;;;;;;;22.71;59.20;94560.63;5053561;28;20052;-67
2022/06/08 07:40:35;;;;;;;3.05;1.75;;;;;;;22.73;58.15;94556.91;5056740;28;20041;-67
2022/06/08 07:43:01;;;;;;;3.45;2.20;;;;;;;22.77;56.81;94558.59;5059774;28;20632;-68
2022/06/08 07:45:28;;;;;;;5.60;2.80;;;;;;;22.83;58.58;94567.16;5055284;28;20437;-67
2022/06/08 07:50:41;;;;;;;6.10;2.50;;;;;;;22.65;59.65;94564.56;5057319;28;20044;-68
2022/06/08 07:53:08;;;;;;;5.25;2.15;;;;;;;22.80;57.14;94567.81;5075305;28;20123;-67
2022/06/08 07:55:35;;;;;;;11.85;2.38;;;;;;;22.56;57.64;94579.69;5059659;28;20510;-67
2022/06/08 07:58:03;;;;;;;2.55;2.15;;;;;;;22.75;55.69;94560.00;5059406;28;20122;-67
2022/06/08 08:00:30;;;;;;;5.78;2.30;;;;;;;23.06;55.33;94563.25;5063471;28;20409;-67
2022/06/08 08:02:57;;;;;;;4.57;1.90;;;;;;;23.37;53.43;94570.22;5066211;28;20036;-68
2022/06/08 08:05:24;;;;;;;3.10;2.10;;;;;;;23.48;52.59;94576.72;5060885;28;20037;-67
2022/06/08 08:07:51;;;;;;;2.63;1.88;;;;;;;23.65;53.78;94569.78;5064810;28;20036;-68
2022/06/08 08:10:22;;;;;;;2.00;1.55;;;;;;;23.74;51.17;94567.84;5065427;28;20039;-67
2022/06/08 08:12:49;;;;;;;2.88;1.90;;;;;;;23.65;51.42;94569.78;5063185;28;20114;-67
2022/06/08 08:15:16;;;;;;;5.80;2.08;;;;;;;23.70;48.21;94572.25;5068639;28;20047;-67
2022/06/08 08:17:43;;;;;;;2.40;1.88;;;;;;;23.75;49.43;94558.78;5061545;28;20036;-68
2022/06/08 08:20:15;;;;;;;3.00;1.50;;;;;;;23.76;48.42;94570.97;5062103;28;20131;-67
2022/06/08 08:22:42;;;;;;;2.17;1.98;;;;;;;23.80;48.18;94555.94;5062444;28;20256;-67
2022/06/08 08:25:10;;;;;;;2.05;1.60;;;;;;;23.99;48.37;94562.75;5066450;28;20049;-68
2022/06/08 08:27:37;;;;;;;3.28;2.00;;;;;;;23.98;48.24;94546.00;5061153;28;20489;-67
2022/06/08 08:30:05;;;;;;;3.40;1.63;;;;;;;24.29;48.97;94544.06;5060201;28;20047;-68
2022/06/08 08:32:32;;;;;;;3.80;1.67;;;;;;;24.64;48.79;94543.84;5066309;28;20088;-67
2022/06/08 08:34:59;;;;;;;2.40;1.30;;;;;;;24.86;45.22;94545.34;5070296;28;20047;-67
2022/06/08 08:37:25;;;;;;;2.10;1.80;;;;;;;24.83;45.17;94546.78;5061160;28;20047;-68
2022/06/08 08:39:52;;;;;;;3.13;2.33;;;;;;;25.08;44.98;94544.94;5063399;28;20048;-68
2022/06/08 08:42:22;;;;;;;5.43;2.33;;;;;;;25.30;45.16;94543.81;5058881;28;20052;-69
2022/06/08 08:45:06;;;;;;;2.50;1.88;;;;;;;25.66;45.24;94533.47;5061107;28;20047;-69
2022/06/08 08:47:35;;;;;;;4.63;1.90;;;;;;;25.97;45.70;94530.28;5060966;28;20040;-69
2022/06/08 08:50:17;;;;;;;2.47;1.58;;;;;;;26.33;46.54;94534.75;5061651;28;20553;-69
2022/06/08 08:53:09;;;;;;;2.40;1.58;;;;;;;26.54;43.41;94528.44;5057739;28;20137;-69
2022/06/08 08:55:51;;;;;;;2.78;2.03;;;;;;;26.81;42.18;94528.78;5066296;28;20048;-69
2022/06/08 08:58:21;;;;;;;2.67;2.00;;;;;;;26.88;41.44;94521.75;5060434;28;20553;-69
2022/06/08 09:00:50;;;;;;;3.30;1.90;;;;;;;27.00;41.06;94525.47;5065161;28;20037;-68
2022/06/08 09:03:29;;;;;;;4.82;2.40;;;;;;;27.07;41.66;94523.00;5065236;28;20047;-68
2022/06/08 09:06:01;;;;;;;4.47;2.15;;;;;;;27.10;43.66;94522.31;5059544;28;20067;-68
2022/06/08 09:08:27;;;;;;;3.58;2.20;;;;;;;27.26;39.27;94525.78;5060881;28;20131;-68
2022/06/08 09:10:59;;;;;;;2.70;1.95;;;;;;;27.17;40.06;94516.34;5057664;28;20052;-68
2022/06/08 09:13:43;;;;;;;2.70;1.98;;;;;;;27.03;39.98;94512.22;5059428;28;20044;-68
2022/06/08 09:16:26;;;;;;;2.97;2.00;;;;;;;26.89;39.70;94517.97;5055979;28;20041;-69
2022/06/08 09:18:53;;;;;;;2.45;2.08;;;;;;;26.83;40.24;94514.00;5062987;28;20036;-68
2022/06/08 09:21:33;;;;;;;8.98;2.25;;;;;;;27.16;43.42;94504.13;5064436;28;20040;-68
2022/06/08 09:24:09;;;;;;;4.72;1.80;;;;;;;27.49;41.32;94500.34;5060935;28;20044;-68
2022/06/08 09:26:39;;;;;;;3.20;1.80;;;;;;;27.55;39.80;94499.72;5089505;27;20075;-68
2022/06/08 09:29:21;;;;;;;2.20;1.33;;;;;;;27.68;38.88;94502.28;5059451;28;20242;-68
2022/06/08 09:31:53;;;;;;;4.43;1.75;;;;;;;27.84;39.20;94505.72;5077622;28;20833;-67
2022/06/08 09:34:22;;;;;;;2.78;1.77;;;;;;;28.03;38.70;94500.41;5063886;28;20060;-68
2022/06/08 09:37:11;;;;;;;1.60;1.50;;;;;;;28.08;38.17;94493.25;5062440;28;20047;-68
2022/06/08 09:39:41;;;;;;;2.83;1.90;;;;;;;28.32;39.32;94501.00;5047575;28;20121;-68
2022/06/08 09:42:41;;;;;;;2.55;1.98;;;;;;;28.39;38.73;94487.75;5063345;28;20081;-68
2022/06/08 09:45:13;;;;;;;2.80;1.50;;;;;;;28.88;37.85;94501.69;5063042;28;20037;-68
2022/06/08 09:53:42;;;;;;;2.10;1.58;;;;;;;29.43;34.27;94499.59;5058317;28;20123;-68
2022/06/08 09:56:24;;;;;;;2.40;1.48;;;;;;;29.34;36.77;94491.00;5059310;28;20047;-68
2022/06/08 09:59:18;;;;;;;1.95;1.67;;;;;;;29.59;35.15;94493.31;5058494;28;20131;-68
2022/06/08 10:01:52;;;;;;;1.40;1.27;;;;;;;29.64;33.55;94495.66;5056393;28;20044;-68
2022/06/08 10:04:46;;;;;;;1.60;1.20;;;;;;;29.60;33.48;94492.16;5062323;28;20075;-67
2022/06/08 10:07:27;;;;;;;2.22;1.42;;;;;;;29.74;34.58;94487.78;5057927;28;20094;-68
2022/06/08 10:10:24;;;;;;;1.90;1.20;;;;;;;30.11;32.93;94486.38;5059297;28;20453;-68
2022/06/08 10:12:58;;;;;;;3.15;1.13;;;;;;;29.22;31.52;94483.16;5058016;28;20045;-67
2022/06/08 10:15:34;;;;;;;3.58;1.20;;;;;;;29.06;32.94;94475.97;5059701;28;20131;-68
2022/06/08 10:18:15;;;;;;;2.75;1.33;;;;;;;29.40;35.84;94478.84;5057920;28;20570;-68
2022/06/08 10:20:55;;;;;;;2.10;1.38;;;;;;;29.51;33.01;94477.09;5059267;28;20029;-72
2022/06/08 10:23:33;;;;;;;4.45;1.45;;;;;;;29.75;32.05;94472.50;5058652;28;20044;-69
2022/06/08 10:26:12;;;;;;;1.70;1.00;;;;;;;29.35;31.55;94461.16;5055094;28;20050;-68
2022/06/08 10:28:52;;;;;;;2.80;1.45;;;;;;;29.24;31.98;94467.47;5056940;28;20048;-69
2022/06/08 10:31:32;;;;;;;3.03;1.00;;;;;;;29.88;31.27;94479.19;5060420;28;20056;-67
2022/06/08 10:34:27;;;;;;;4.57;1.23;;;;;;;30.37;31.92;94474.06;5058129;28;20273;-67
2022/06/08 10:37:19;;;;;;;1.23;1.10;;;;;;;30.82;31.62;94466.84;5057530;28;20106;-68
2022/06/08 10:39:50;;;;;;;2.95;1.15;;;;;;;31.10;29.33;94454.81;5057524;28;20071;-67
2022/06/08 10:45:23;;;;;;;1.85;1.15;;;;;;;31.58;29.17;94446.75;5058447;28;20036;-67
2022/06/08 10:48:04;;;;;;;2.90;0.95;;;;;;;31.90;28.63;94449.63;5057311;28;20079;-67
2022/06/08 10:50:48;;;;;;;1.27;0.80;;;;;;;32.23;28.93;94442.50;5056969;28;20067;-67
2022/06/08 10:56:22;;;;;;;1.10;0.85;;;;;;;32.59;26.31;94448.03;5057090;28;20123;-66
2022/06/08 10:59:07;;;;;;;1.13;0.73;;;;;;;32.67;26.74;94451.53;5057911;28;20048;-66
2022/06/08 11:02:01;;;;;;;1.23;0.73;;;;;;;32.99;26.17;94448.06;5054334;28;20044;-66
2022/06/08 11:04:31;;;;;;;1.20;0.55;;;;;;;33.01;25.04;94445.75;5058465;28;20052;-67
2022/06/08 11:07:05;;;;;;;0.60;0.40;;;;;;;33.10;26.54;94440.78;5054950;28;20060;-66
2022/06/08 11:09:33;;;;;;;1.92;1.00;;;;;;;33.42;26.21;94448.09;5058287;28;20568;-66
2022/06/08 11:12:12;;;;;;;1.02;0.55;;;;;;;33.65;23.81;94440.38;5057305;28;20059;-66
2022/06/08 11:14:48;;;;;;;3.33;1.40;;;;;;;33.93;25.35;94436.09;5060592;28;20068;-67
2022/06/08 11:17:26;;;;;;;1.40;0.88;;;;;;;34.12;24.94;94444.91;5054770;28;20076;-67
2022/06/08 11:20:15;;;;;;;1.70;1.00;;;;;;;34.51;22.30;94443.97;5058927;28;20829;-66
2022/06/08 11:22:50;;;;;;;1.17;0.93;;;;;;;34.41;24.91;94440.94;5056030;28;20051;-66
2022/06/08 11:25:47;;;;;;;2.55;0.70;;;;;;;34.54;24.34;94443.16;5058308;28;20074;-67
2022/06/08 11:28:27;;;;;;;1.27;0.90;;;;;;;35.00;23.03;94431.31;5055964;28;20044;-66
2022/06/08 11:30:58;;;;;;;0.90;0.70;;;;;;;34.91;23.60;94428.31;5058140;28;20036;-67
2022/06/08 11:33:49;;;;;;;2.28;1.10;;;;;;;35.01;23.93;94424.75;5056835;28;20056;-67
2022/06/08 11:36:40;;;;;;;1.90;0.80;;;;;;;35.55;22.39;94416.19;5064637;28;20048;-67
2022/06/08 11:39:35;;;;;;;3.38;0.80;;;;;;;36.09;21.74;94421.06;5060126;28;20059;-67
2022/06/08 11:42:22;;;;;;;1.52;0.90;;;;;;;36.01;21.46;94417.66;5061717;28;20034;-67
2022/06/08 11:44:53;;;;;;;1.48;1.20;;;;;;;36.18;23.15;94413.19;5059700;28;20076;-69
2022/06/08 11:47:49;;;;;;;1.92;0.95;;;;;;;36.39;21.62;94416.81;5057015;28;20138;-70
2022/06/08 11:50:22;;;;;;;1.27;0.98;;;;;;;36.78;20.84;94412.81;5061039;28;20748;-70
2022/06/08 11:53:05;;;;;;;2.65;0.90;;;;;;;36.68;21.56;94396.31;5061099;28;20048;-75
2022/06/08 11:55:45;;;;;;;1.05;0.80;;;;;;;37.20;21.36;94397.81;5043644;28;20045;-75
2022/06/08 11:58:22;;;;;;;0.98;0.88;;;;;;;37.01;21.73;94395.81;5064329;28;20048;-75
2022/06/08 12:01:02;;;;;;;1.95;0.73;;;;;;;37.36;21.58;94394.44;5060896;28;20140;-75
2022/06/08 12:03:44;;;;;;;0.90;0.80;;;;;;;37.41;21.01;94396.69;5063971;28;20056;-75
2022/06/08 12:06:17;;;;;;;0.82;0.80;;;;;;;37.61;21.63;94395.97;5057209;28;20136;-75
2022/06/08 12:08:51;;;;;;;1.70;0.73;;;;;;;37.94;20.57;94410.50;5061653;28;20044;-75
2022/06/08 12:11:22;;;;;;;4.55;1.05;;;;;;;37.36;19.45;94418.13;5057775;28;20032;-75
2022/06/08 12:13:58;;;;;;;1.10;0.80;;;;;;;35.36;21.50;94412.09;5075360;28;20491;-75
2022/06/08 12:16:36;;;;;;;1.88;1.00;;;;;;;35.04;21.63;94402.28;5058561;28;20044;-74